createdAt,value
2022-09-15T00:05:06.035Z,1012
2022-09-15T00:15:05.897Z,1012
2022-09-15T00:25:06.033Z,1012
2022-09-15T00:35:05.925Z,1012
2022-09-15T00:45:06.035Z,1012
2022-09-15T00:55:06.106Z,1012
2022-09-15T01:05:06.106Z,1012
2022-09-15T01:15:06.117Z,1012
2022-09-15T01:25:06.027Z,1012
2022-09-15T01:35:06.109Z,1012
2022-09-15T01:45:06.024Z,1012
2022-09-15T01:55:06.106Z,1012
2022-09-15T02:05:06.031Z,1012
2022-09-15T02:15:06.103Z,1012
2022-09-15T02:25:06.230Z,1012
2022-09-15T02:35:06.086Z,1012
2022-09-15T02:45:06.205Z,1012
2022-09-15T02:55:06.095Z,1012
2022-09-15T03:05:06.221Z,1012
2022-09-15T03:15:06.075Z,1012
2022-09-15T03:25:06.206Z,1012
2022-09-15T03:35:06.281Z,1012
2022-09-15T03:45:06.199Z,1012
2022-09-15T03:55:06.275Z,1012
2022-09-15T04:05:06.203Z,1012
2022-09-15T04:15:06.279Z,1012
2022-09-15T04:25:06.184Z,1012
2022-09-15T04:35:06.275Z,1012
2022-09-15T04:45:06.192Z,1012
2022-09-15T04:55:06.253Z,1012
2022-09-15T05:05:06.379Z,1012
2022-09-15T05:15:06.252Z,1012
2022-09-15T05:25:06.372Z,1012
2022-09-15T05:35:06.259Z,1012
2022-09-15T05:45:06.381Z,1012
2022-09-15T05:55:06.242Z,1012
2022-09-15T06:05:06.362Z,1012
2022-09-15T06:15:06.436Z,1012
2022-09-15T06:25:06.370Z,1012
2022-09-15T06:35:06.454Z,1013
2022-09-15T06:45:06.354Z,1013
2022-09-15T06:55:06.430Z,1013
2022-09-15T07:05:06.356Z,1013
2022-09-15T07:15:06.437Z,1013
2022-09-15T07:25:06.357Z,1013
2022-09-15T07:35:06.437Z,1013
2022-09-15T07:45:06.548Z,1013
2022-09-15T07:55:06.414Z,1013
2022-09-15T08:05:06.538Z,1014
2022-09-15T08:15:06.424Z,1014
2022-09-15T08:25:06.542Z,1014
2022-09-15T08:35:06.419Z,1014
2022-09-15T08:45:06.531Z,1015
2022-09-15T08:55:06.484Z,1015
2022-09-15T09:05:06.637Z,1015
2022-09-15T09:15:06.596Z,1015
2022-09-15T09:25:21.405Z,1015
2022-09-15T09:35:06.809Z,1015
2022-09-15T09:45:06.729Z,1015
2022-09-15T09:55:06.659Z,1015
2022-09-15T10:05:06.662Z,1016
2022-09-15T10:15:06.647Z,1016
2022-09-15T10:25:06.557Z,1016
2022-09-15T10:35:06.654Z,1016
2022-09-15T10:45:06.574Z,1016
2022-09-15T10:55:06.711Z,1016
2022-09-15T11:05:06.768Z,1016
2022-09-15T11:15:06.619Z,1016
2022-09-15T11:25:06.806Z,1016
2022-09-15T11:35:06.630Z,1016
2022-09-15T11:45:06.750Z,1016
2022-09-15T11:55:06.618Z,1016
2022-09-15T12:05:06.799Z,1017
2022-09-15T12:15:06.612Z,1017
2022-09-15T12:25:06.742Z,1017
2022-09-15T12:35:10.182Z,1017
2022-09-15T12:45:06.738Z,1018
2022-09-15T12:55:06.865Z,1018
2022-09-15T13:05:06.770Z,1018
2022-09-15T13:15:06.801Z,1018
2022-09-15T13:25:06.719Z,1020
2022-09-15T13:35:18.026Z,1020
2022-09-15T13:45:06.925Z,1020
2022-09-15T13:55:06.809Z,1020
2022-09-15T14:05:06.936Z,1020
2022-09-15T14:15:06.792Z,1021
2022-09-15T14:25:06.916Z,1021
2022-09-15T14:35:06.780Z,1021
2022-09-15T14:55:06.783Z,1021
2022-09-15T15:05:06.906Z,1021
2022-09-15T15:15:06.981Z,1021
2022-09-15T15:25:06.884Z,1021
2022-09-15T15:35:06.961Z,1020
2022-09-15T15:45:06.897Z,1020
2022-09-15T15:55:06.973Z,1020
2022-09-15T16:05:06.892Z,1020
2022-09-15T16:15:06.957Z,1018
2022-09-15T16:25:06.881Z,1018
2022-09-15T16:35:06.972Z,1018
2022-09-15T16:45:07.084Z,1018
2022-09-15T16:55:06.967Z,1017
2022-09-15T17:05:08.177Z,1017
2022-09-15T17:15:06.949Z,1017
2022-09-15T17:25:07.105Z,1017
2022-09-15T17:35:07.041Z,1017
2022-09-15T17:45:07.150Z,1017
2022-09-15T17:55:07.275Z,1017
2022-09-15T18:05:07.244Z,1017
2022-09-15T18:15:07.138Z,1017
2022-09-15T18:25:07.142Z,1017
2022-09-15T18:35:07.008Z,1017
2022-09-15T18:45:07.137Z,1017
2022-09-15T18:55:07.027Z,1017
2022-09-15T19:05:07.161Z,1017
2022-09-15T19:15:10.537Z,1017
2022-09-15T19:25:07.124Z,1016
2022-09-15T19:35:07.481Z,1016
2022-09-15T19:45:07.113Z,1016
2022-09-15T19:55:07.199Z,1016
2022-09-15T20:05:07.120Z,1016
2022-09-15T20:15:07.197Z,1016
2022-09-15T20:25:07.350Z,1016
2022-09-15T20:35:07.262Z,1016
2022-09-15T20:45:07.319Z,1016
2022-09-15T20:55:07.197Z,1016
2022-09-15T21:05:07.319Z,1017
2022-09-15T21:15:07.183Z,1017
2022-09-15T21:25:07.314Z,1017
2022-09-15T21:35:07.187Z,1017
2022-09-15T21:45:07.312Z,1017
2022-09-15T21:55:07.378Z,1017
2022-09-15T22:05:07.322Z,1017
2022-09-15T22:15:07.382Z,1017
2022-09-15T22:25:07.350Z,1017
2022-09-15T22:35:07.413Z,1017
2022-09-15T22:45:07.314Z,1017
2022-09-15T22:55:07.387Z,1017
2022-09-15T23:05:07.346Z,1017
2022-09-15T23:15:07.415Z,1017
2022-09-15T23:25:07.309Z,1017
2022-09-15T23:35:07.377Z,1017
2022-09-15T23:45:07.507Z,1017
2022-09-15T23:55:07.390Z,1017
